Time;durP1;ratioP1;P1;durP2;ratioP2;P2;SDS_P1;SDS_P2;PMS_P1;PMS_P2;Temp;Humidity;BMP_temperature;BMP_pressure;BME280_temperature;BME280_humidity;BME280_pressure;Samples;Min_cycle;Max_cycle;Signal;HPM_P1;HPM_P2
2021/11/04 00:01:19;;;;;;;1.30;0.60;;;10.30;70.10;;;;;;5091827;28;20473;-81
2021/11/04 00:03:45;;;;;;;2.33;0.70;;;10.30;70.40;;;;;;5093772;28;20023;-81
2021/11/04 00:06:10;;;;;;;2.00;0.80;;;10.30;70.70;;;;;;5072793;28;20428;-81
2021/11/04 00:08:36;;;;;;;0.97;0.70;;;10.30;70.70;;;;;;5088120;28;20024;-81
2021/11/04 00:11:02;;;;;;;1.43;1.10;;;10.30;70.80;;;;;;5087389;28;20024;-81
2021/11/04 00:13:28;;;;;;;1.80;1.00;;;10.30;70.80;;;;;;5067923;28;20475;-81
2021/11/04 00:15:53;;;;;;;1.30;0.90;;;10.20;70.70;;;;;;5064245;28;20023;-80
2021/11/04 00:18:19;;;;;;;1.40;0.90;;;10.20;71.00;;;;;;5074032;28;20028;-81
2021/11/04 00:20:45;;;;;;;1.63;0.90;;;10.20;71.10;;;;;;5095098;28;20039;-81
2021/11/04 00:23:11;;;;;;;2.33;1.20;;;10.20;71.10;;;;;;5090014;28;20024;-81
2021/11/04 00:25:37;;;;;;;1.60;0.80;;;10.30;71.10;;;;;;5068489;28;20483;-81
2021/11/04 00:28:02;;;;;;;2.00;1.00;;;10.30;71.00;;;;;;5092157;28;20074;-81
2021/11/04 00:30:28;;;;;;;0.60;0.40;;;10.30;70.90;;;;;;5082935;28;20121;-80
2021/11/04 00:32:55;;;;;;;1.80;0.50;;;10.30;70.80;;;;;;5087575;28;20032;-81
2021/11/04 00:35:22;;;;;;;0.97;0.50;;;10.20;70.70;;;;;;5071881;28;20029;-81
2021/11/04 00:37:48;;;;;;;1.67;0.50;;;10.20;70.70;;;;;;5078661;28;20024;-81
2021/11/04 00:40:17;;;;;;;0.20;0.17;;;10.10;70.40;;;;;;5085118;28;20095;-81
2021/11/04 00:42:42;;;;;;;0.57;0.30;;;10.10;70.30;;;;;;5091626;28;20091;-81
2021/11/04 00:45:09;;;;;;;1.67;0.40;;;10.10;70.20;;;;;;5083392;28;20159;-81
2021/11/04 00:47:35;;;;;;;0.87;0.43;;;10.10;70.20;;;;;;5089348;28;20364;-80
2021/11/04 00:50:01;;;;;;;1.10;0.40;;;10.10;70.20;;;;;;5080013;28;20028;-81
2021/11/04 00:52:27;;;;;;;1.33;0.40;;;10.10;70.10;;;;;;5061976;28;20078;-81
2021/11/04 00:54:52;;;;;;;1.80;0.30;;;10.10;70.40;;;;;;5088814;28;20092;-81
2021/11/04 00:57:18;;;;;;;1.33;0.40;;;10.10;70.20;;;;;;5073870;28;20498;-81
2021/11/04 00:59:44;;;;;;;1.33;0.43;;;10.10;70.10;;;;;;5071773;28;20028;-81
2021/11/04 01:02:10;;;;;;;0.70;0.30;;;10.10;70.10;;;;;;5066233;28;20024;-81
2021/11/04 01:04:36;;;;;;;0.53;0.30;;;10.10;70.10;;;;;;5090491;28;20103;-81
2021/11/04 01:07:02;;;;;;;1.13;0.27;;;10.00;70.00;;;;;;5087361;28;20055;-81
2021/11/04 01:09:28;;;;;;;1.63;0.47;;;10.00;69.80;;;;;;5062021;28;20394;-81
2021/11/04 01:11:53;;;;;;;1.20;0.30;;;9.90;69.80;;;;;;5076569;28;20081;-81
2021/11/04 01:14:19;;;;;;;0.23;0.13;;;9.90;70.10;;;;;;5082256;28;20020;-81
2021/11/04 01:16:45;;;;;;;0.33;0.20;;;9.80;69.90;;;;;;5086763;28;20029;-81
2021/11/04 01:19:12;;;;;;;0.90;0.10;;;9.70;69.80;;;;;;5089812;28;20375;-81
2021/11/04 01:21:39;;;;;;;1.90;0.43;;;9.60;69.70;;;;;;5068388;28;20028;-80
2021/11/04 01:24:06;;;;;;;0.63;0.20;;;9.60;70.00;;;;;;5095309;28;20374;-81
2021/11/04 01:26:32;;;;;;;0.90;0.20;;;9.60;70.10;;;;;;5094034;28;20025;-81
2021/11/04 01:28:58;;;;;;;1.00;0.30;;;9.60;70.10;;;;;;5089755;28;20073;-81
2021/11/04 01:31:23;;;;;;;0.10;0.10;;;9.60;70.00;;;;;;5076994;28;20107;-81
2021/11/04 01:33:49;;;;;;;0.47;0.10;;;9.60;69.80;;;;;;5078249;28;20031;-81
2021/11/04 01:36:15;;;;;;;3.13;0.13;;;9.60;69.70;;;;;;5085833;28;20109;-80
2021/11/04 01:38:41;;;;;;;0.07;0.00;;;9.50;69.60;;;;;;5071723;28;20024;-81
2021/11/04 01:41:07;;;;;;;1.47;0.20;;;9.40;69.60;;;;;;5075604;28;20059;-81
2021/11/04 01:43:33;;;;;;;0.10;0.10;;;9.40;69.50;;;;;;5090330;28;20704;-81
2021/11/04 01:45:59;;;;;;;1.03;0.10;;;9.40;69.60;;;;;;5091407;28;20036;-81
2021/11/04 01:48:25;;;;;;;0.83;0.10;;;9.40;69.50;;;;;;5070007;28;20020;-81
2021/11/04 01:50:50;;;;;;;0.60;0.20;;;9.30;69.10;;;;;;5073724;28;20055;-81
2021/11/04 01:53:21;;;;;;;0.43;0.30;;;9.30;69.10;;;;;;5070671;28;20032;-81
2021/11/04 01:55:48;;;;;;;0.50;0.30;;;9.20;69.30;;;;;;5085397;28;20028;-81
2021/11/04 01:58:14;;;;;;;0.10;0.10;;;9.20;69.10;;;;;;5072580;28;20090;-81
2021/11/04 02:00:40;;;;;;;0.67;0.10;;;9.20;69.10;;;;;;5091739;28;20027;-81
2021/11/04 02:03:24;;;;;;;0.10;0.00;;;9.20;69.60;;;;;;5078637;28;20115;-81
2021/11/04 02:05:59;;;;;;;1.70;0.10;;;9.20;68.80;;;;;;5086238;28;20028;-81
2021/11/04 02:09:05;;;;;;;0.40;0.20;;;9.20;68.80;;;;;;5074146;28;20079;-81
2021/11/04 02:11:54;;;;;;;0.60;0.20;;;9.20;68.80;;;;;;5032251;28;20060;-81
2021/11/04 02:14:45;;;;;;;1.13;0.20;;;9.10;68.60;;;;;;5077278;28;20020;-80
2021/11/04 02:17:12;;;;;;;1.17;0.10;;;9.10;68.80;;;;;;5083900;28;20082;-81
2021/11/04 02:19:50;;;;;;;0.10;0.07;;;9.00;68.70;;;;;;5085607;28;20021;-81
2021/11/04 02:22:28;;;;;;;1.23;0.20;;;9.00;68.80;;;;;;5072410;28;20055;-81
2021/11/04 02:25:19;;;;;;;0.50;0.20;;;9.00;68.80;;;;;;5073231;28;20024;-81
2021/11/04 02:28:07;;;;;;;1.30;0.10;;;9.00;68.70;;;;;;5089192;28;20028;-81
2021/11/04 02:30:34;;;;;;;0.77;0.20;;;8.90;68.40;;;;;;5094054;28;20050;-81
2021/11/04 02:33:01;;;;;;;2.40;0.60;;;8.90;68.50;;;;;;5094881;28;20113;-81
2021/11/04 02:35:27;;;;;;;0.70;0.33;;;8.90;68.60;;;;;;5072740;28;20035;-81
2021/11/04 02:37:55;;;;;;;0.63;0.10;;;8.90;68.60;;;;;;5074893;28;20028;-81
2021/11/04 02:40:22;;;;;;;1.63;0.10;;;8.80;68.50;;;;;;5079603;28;20099;-81
2021/11/04 02:42:49;;;;;;;1.57;0.20;;;8.80;68.40;;;;;;5092848;28;20994;-81
2021/11/04 02:45:19;;;;;;;0.20;0.10;;;8.80;68.30;;;;;;5072271;28;20055;-81
2021/11/04 02:47:46;;;;;;;0.10;0.10;;;8.80;68.40;;;;;;5075285;28;20039;-81
2021/11/04 02:50:12;;;;;;;0.30;0.20;;;8.80;68.30;;;;;;5089340;28;20107;-81
2021/11/04 02:52:38;;;;;;;0.57;0.10;;;8.80;68.10;;;;;;5073688;28;20466;-81
2021/11/04 02:55:06;;;;;;;0.27;0.10;;;8.80;68.00;;;;;;5077198;28;20026;-81
2021/11/04 02:57:44;;;;;;;1.07;0.10;;;8.70;68.00;;;;;;5065254;28;20027;-81
2021/11/04 03:00:12;;;;;;;0.57;0.10;;;8.70;68.00;;;;;;5089035;28;20108;-80
2021/11/04 03:02:38;;;;;;;0.07;0.03;;;8.60;67.90;;;;;;5059304;28;20028;-81
2021/11/04 03:05:04;;;;;;;0.10;0.00;;;8.60;67.80;;;;;;5066035;28;20016;-80
2021/11/04 03:07:30;;;;;;;0.93;0.23;;;8.60;67.80;;;;;;5078182;28;20035;-80
2021/11/04 03:09:55;;;;;;;0.47;0.30;;;8.50;67.70;;;;;;5086032;28;20028;-80
2021/11/04 03:12:21;;;;;;;0.60;0.20;;;8.40;68.10;;;;;;5075855;28;20396;-80
2021/11/04 03:14:49;;;;;;;0.30;0.10;;;8.40;68.00;;;;;;5072822;28;20020;-80
2021/11/04 03:17:16;;;;;;;0.10;0.10;;;8.40;68.10;;;;;;5077468;28;20043;-81
2021/11/04 03:19:42;;;;;;;0.20;0.10;;;8.40;67.80;;;;;;5073090;28;20487;-80
2021/11/04 03:22:08;;;;;;;0.30;0.20;;;8.30;67.60;;;;;;5084305;28;20380;-81
2021/11/04 03:24:34;;;;;;;0.87;0.50;;;8.30;67.80;;;;;;5085647;28;20028;-81
2021/11/04 03:27:03;;;;;;;1.43;0.40;;;8.20;67.50;;;;;;5057979;28;20432;-81
2021/11/04 03:29:34;;;;;;;1.00;0.40;;;8.20;67.30;;;;;;5074859;28;20451;-81
2021/11/04 03:32:04;;;;;;;0.73;0.30;;;8.10;67.50;;;;;;5070481;28;20085;-81
2021/11/04 03:34:31;;;;;;;1.40;0.37;;;8.00;67.10;;;;;;5098193;28;20501;-81
2021/11/04 03:36:58;;;;;;;0.50;0.20;;;7.90;67.10;;;;;;5078093;28;20099;-81
2021/11/04 03:39:25;;;;;;;1.07;0.27;;;7.90;67.00;;;;;;5084443;28;20023;-81
2021/11/04 03:41:53;;;;;;;2.43;0.23;;;7.90;66.90;;;;;;5067387;28;20028;-81
2021/11/04 03:44:24;;;;;;;0.20;0.20;;;7.80;66.70;;;;;;5080783;28;20501;-80
2021/11/04 03:46:52;;;;;;;0.63;0.17;;;7.70;66.60;;;;;;5094014;28;20022;-81
2021/11/04 03:49:19;;;;;;;0.17;0.10;;;7.70;66.50;;;;;;5081667;28;20028;-81
2021/11/04 03:51:48;;;;;;;0.27;0.10;;;7.60;66.50;;;;;;5076296;28;20119;-81
2021/11/04 03:54:15;;;;;;;0.40;0.40;;;7.60;66.60;;;;;;5075773;28;20115;-81
2021/11/04 03:56:41;;;;;;;0.20;0.20;;;7.40;66.50;;;;;;5089114;28;20070;-81
2021/11/04 03:59:08;;;;;;;0.73;0.30;;;7.40;66.50;;;;;;5064156;28;20028;-81
2021/11/04 04:01:34;;;;;;;0.63;0.20;;;7.30;66.70;;;;;;5071960;28;20028;-81
2021/11/04 04:04:02;;;;;;;0.10;0.10;;;7.30;66.80;;;;;;5073023;28;20578;-81
2021/11/04 04:06:28;;;;;;;0.73;0.20;;;7.20;66.60;;;;;;5073676;28;20035;-81
2021/11/04 04:08:55;;;;;;;0.00;0.00;;;7.30;66.90;;;;;;5090486;28;20028;-81
2021/11/04 04:11:22;;;;;;;0.20;0.10;;;7.20;66.80;;;;;;5084347;28;20380;-81
2021/11/04 04:13:50;;;;;;;1.23;0.30;;;7.20;66.50;;;;;;5075430;28;20027;-81
2021/11/04 04:16:17;;;;;;;0.30;0.20;;;7.20;66.60;;;;;;5081238;28;20090;-81
2021/11/04 04:18:42;;;;;;;0.20;0.10;;;7.10;66.70;;;;;;5084358;28;20020;-81
2021/11/04 04:21:08;;;;;;;0.17;0.10;;;7.10;66.70;;;;;;5071070;28;20034;-81
2021/11/04 04:23:34;;;;;;;0.77;0.27;;;7.10;66.80;;;;;;5063231;28;20028;-81
2021/11/04 04:25:59;;;;;;;0.10;0.10;;;7.00;66.70;;;;;;5075466;28;20032;-81
2021/11/04 04:28:25;;;;;;;0.30;0.10;;;7.00;66.80;;;;;;5083508;28;20498;-81
2021/11/04 04:30:51;;;;;;;0.10;0.10;;;6.90;67.00;;;;;;5091551;28;20031;-81
2021/11/04 04:33:17;;;;;;;0.37;0.17;;;7.00;67.30;;;;;;5073279;28;20023;-80
2021/11/04 04:35:42;;;;;;;0.20;0.20;;;7.00;67.50;;;;;;5088788;28;20020;-81
2021/11/04 04:38:08;;;;;;;0.20;0.20;;;6.90;67.10;;;;;;5066772;28;20032;-81
2021/11/04 04:40:34;;;;;;;1.00;0.30;;;6.90;67.10;;;;;;5058303;28;20092;-81
2021/11/04 04:43:00;;;;;;;1.03;0.30;;;6.90;67.10;;;;;;5085106;28;20040;-81
2021/11/04 04:45:25;;;;;;;0.30;0.27;;;7.00;67.00;;;;;;5072311;28;20055;-81
2021/11/04 04:47:51;;;;;;;1.27;0.47;;;6.90;66.80;;;;;;5088101;28;20041;-81
2021/11/04 04:50:17;;;;;;;0.20;0.20;;;6.80;67.00;;;;;;5086120;28;20105;-81
2021/11/04 04:52:43;;;;;;;0.20;0.20;;;6.80;67.20;;;;;;5074717;28;20056;-81
2021/11/04 04:55:09;;;;;;;0.60;0.40;;;6.80;67.40;;;;;;5089971;28;20021;-81
2021/11/04 04:57:36;;;;;;;0.23;0.20;;;6.70;67.30;;;;;;5096087;28;20028;-81
2021/11/04 05:00:10;;;;;;;0.27;0.27;;;6.70;67.30;;;;;;5074328;28;20028;-81
2021/11/04 05:02:36;;;;;;;0.53;0.33;;;6.70;67.50;;;;;;5089055;28;20077;-81
2021/11/04 05:05:02;;;;;;;0.57;0.40;;;6.80;67.20;;;;;;5074001;28;20479;-81
2021/11/04 05:07:28;;;;;;;2.43;0.50;;;6.80;67.20;;;;;;5086317;28;20031;-81
2021/11/04 05:09:54;;;;;;;1.27;0.60;;;6.70;67.20;;;;;;5091894;28;20099;-81
2021/11/04 05:12:19;;;;;;;0.73;0.60;;;6.70;67.40;;;;;;5076064;28;20474;-81
2021/11/04 05:14:46;;;;;;;1.33;1.20;;;6.70;67.50;;;;;;5090846;28;20099;-81
2021/11/04 05:17:12;;;;;;;3.43;1.30;;;6.70;67.50;;;;;;5092807;28;20378;-82
2021/11/04 05:19:38;;;;;;;1.53;1.20;;;6.60;67.40;;;;;;5092266;28;20039;-81
2021/11/04 05:22:04;;;;;;;1.37;0.90;;;6.50;67.70;;;;;;5073144;28;20431;-81
2021/11/04 05:24:34;;;;;;;1.50;1.20;;;6.50;68.00;;;;;;5060042;28;20081;-81
2021/11/04 05:27:01;;;;;;;1.10;1.00;;;6.50;68.20;;;;;;5087868;28;20039;-81
2021/11/04 05:29:27;;;;;;;1.37;1.00;;;6.50;68.10;;;;;;5088244;28;20495;-81
2021/11/04 05:31:53;;;;;;;1.00;0.83;;;6.50;68.10;;;;;;5070335;28;20154;-81
2021/11/04 05:34:19;;;;;;;1.47;0.80;;;6.50;68.20;;;;;;5066134;28;20021;-81
2021/11/04 05:36:45;;;;;;;1.00;0.90;;;6.60;68.20;;;;;;5074745;28;20026;-81
2021/11/04 05:39:10;;;;;;;1.40;0.90;;;6.60;68.10;;;;;;5076804;28;20027;-81
2021/11/04 05:41:36;;;;;;;1.60;1.30;;;6.50;68.00;;;;;;5077056;28;20032;-81
2021/11/04 05:44:02;;;;;;;1.40;1.30;;;6.40;68.20;;;;;;5094050;28;20040;-81
2021/11/04 05:46:28;;;;;;;1.40;1.27;;;6.30;68.60;;;;;;5087356;28;20113;-81
2021/11/04 05:48:53;;;;;;;3.00;2.20;;;6.40;68.60;;;;;;5075421;28;20082;-81
2021/11/04 05:51:19;;;;;;;3.47;2.33;;;6.40;68.50;;;;;;5085737;28;20020;-81
2021/11/04 05:53:45;;;;;;;3.33;2.30;;;6.40;68.40;;;;;;5095626;28;20028;-81
2021/11/04 05:56:10;;;;;;;3.57;2.73;;;6.40;68.70;;;;;;5075770;28;20016;-81
2021/11/04 05:58:36;;;;;;;3.40;2.10;;;6.40;68.60;;;;;;5069820;28;20028;-81
2021/11/04 06:01:02;;;;;;;2.87;2.17;;;6.40;68.50;;;;;;5074969;28;20023;-81
2021/11/04 06:03:28;;;;;;;3.70;2.50;;;6.30;68.50;;;;;;5083305;28;20042;-81
2021/11/04 06:05:54;;;;;;;3.37;2.50;;;6.40;68.80;;;;;;5076824;28;20028;-81
2021/11/04 06:08:19;;;;;;;3.73;2.60;;;6.40;68.80;;;;;;5089561;28;20024;-80
2021/11/04 06:10:45;;;;;;;3.30;2.47;;;6.40;69.00;;;;;;5088800;28;20056;-81
2021/11/04 06:13:11;;;;;;;9.67;5.67;;;6.40;69.00;;;;;;5073868;28;20040;-81
2021/11/04 06:15:37;;;;;;;8.93;5.70;;;6.40;69.10;;;;;;5076515;28;20020;-81
2021/11/04 06:18:02;;;;;;;5.83;4.27;;;6.50;69.00;;;;;;5072224;28;20098;-81
2021/11/04 06:20:29;;;;;;;4.63;3.67;;;6.50;68.80;;;;;;5073539;28;20028;-81
2021/11/04 06:22:55;;;;;;;5.03;3.67;;;6.50;68.80;;;;;;5076943;28;20035;-81
2021/11/04 06:25:21;;;;;;;8.10;4.70;;;6.50;68.80;;;;;;5096042;28;20024;-81
2021/11/04 06:27:48;;;;;;;5.23;4.37;;;6.50;68.80;;;;;;5111583;28;20471;-80
2021/11/04 06:30:14;;;;;;;7.47;5.23;;;6.50;68.70;;;;;;5097279;28;20106;-81
2021/11/04 06:32:40;;;;;;;6.27;4.83;;;6.50;68.70;;;;;;5087331;28;20100;-81
2021/11/04 06:35:10;;;;;;;9.00;5.77;;;6.60;68.80;;;;;;5077232;28;20495;-81
2021/11/04 06:37:37;;;;;;;6.07;4.40;;;6.60;68.80;;;;;;5056753;28;20409;-81
2021/11/04 06:40:05;;;;;;;5.10;4.23;;;6.60;69.30;;;;;;5107890;28;20072;-81
2021/11/04 06:42:31;;;;;;;5.60;4.10;;;6.60;68.70;;;;;;5094862;28;20110;-81
2021/11/04 06:44:57;;;;;;;4.53;3.23;;;6.60;68.80;;;;;;5097331;28;20507;-80
2021/11/04 06:47:35;;;;;;;5.57;3.37;;;6.60;69.00;;;;;;5077066;28;20379;-81
2021/11/04 06:50:02;;;;;;;3.30;2.90;;;6.60;69.00;;;;;;5092607;28;20099;-81
2021/11/04 06:52:44;;;;;;;4.43;2.97;;;6.60;68.80;;;;;;5055716;28;20482;-81
2021/11/04 06:55:12;;;;;;;4.67;3.20;;;6.50;68.80;;;;;;5064945;28;20076;-81
2021/11/04 06:57:41;;;;;;;6.20;3.17;;;6.60;69.00;;;;;;5071640;28;20129;-81
2021/11/04 07:00:09;;;;;;;6.27;3.43;;;6.60;69.00;;;;;;5045569;28;20047;-81
2021/11/04 07:02:40;;;;;;;6.23;3.40;;;6.50;69.10;;;;;;5051771;28;20127;-81
2021/11/04 07:05:07;;;;;;;7.77;4.77;;;6.50;69.10;;;;;;5069454;28;20024;-81
2021/11/04 07:07:48;;;;;;;8.47;4.80;;;6.50;69.20;;;;;;5061823;28;20028;-81
2021/11/04 07:10:17;;;;;;;7.60;5.87;;;6.50;69.40;;;;;;5064805;28;20016;-81
2021/11/04 07:12:51;;;;;;;8.40;5.43;;;6.50;69.30;;;;;;5094465;28;20028;-81
2021/11/04 07:15:20;;;;;;;7.83;5.97;;;6.50;69.40;;;;;;5062133;28;20055;-81
2021/11/04 07:17:46;;;;;;;10.17;5.27;;;6.50;69.50;;;;;;5053793;28;20488;-81
2021/11/04 07:20:15;;;;;;;7.87;6.03;;;6.50;69.50;;;;;;5055827;28;20024;-81
2021/11/04 07:22:44;;;;;;;6.20;5.53;;;6.40;69.50;;;;;;5085679;28;20078;-81
2021/11/04 07:25:15;;;;;;;11.50;7.00;;;6.50;69.70;;;;;;5064554;28;20024;-81
2021/11/04 07:28:06;;;;;;;12.97;7.73;;;6.40;69.60;;;;;;5075790;28;20103;-81
2021/11/04 07:30:32;;;;;;;12.40;6.87;;;6.50;69.70;;;;;;5093229;28;20052;-81
2021/11/04 07:33:01;;;;;;;9.90;6.87;;;6.40;69.50;;;;;;5071966;28;20025;-81
2021/11/04 07:35:38;;;;;;;9.47;6.87;;;6.30;69.70;;;;;;5052668;28;20104;-81
2021/11/04 07:38:07;;;;;;;9.40;5.83;;;6.40;69.90;;;;;;5053757;28;20422;-81
2021/11/04 07:40:33;;;;;;;11.57;6.03;;;6.40;69.80;;;;;;5045093;28;20052;-81
2021/11/04 07:43:00;;;;;;;7.93;5.07;;;6.40;69.90;;;;;;5073420;28;20391;-81
2021/11/04 07:45:28;;;;;;;10.50;5.23;;;6.40;69.90;;;;;;5073280;28;20090;-81
2021/11/04 07:47:54;;;;;;;8.27;6.40;;;6.50;70.50;;;;;;5073288;28;20020;-81
2021/11/04 07:50:22;;;;;;;12.63;8.03;;;6.60;70.10;;;;;;5070257;28;20452;-81
2021/11/04 07:52:48;;;;;;;15.80;8.77;;;6.60;70.00;;;;;;5054605;28;20029;-81
2021/11/04 07:55:15;;;;;;;13.47;8.23;;;6.70;70.10;;;;;;5035194;28;20025;-81
2021/11/04 07:57:41;;;;;;;15.67;9.20;;;6.70;70.30;;;;;;5039043;28;20051;-81
2021/11/04 08:00:10;;;;;;;12.93;9.43;;;6.70;69.90;;;;;;5051980;28;20049;-80
2021/11/04 08:02:36;;;;;;;18.40;12.80;;;6.80;69.60;;;;;;5035473;28;20029;-80
2021/11/04 08:05:02;;;;;;;18.70;12.97;;;6.70;69.50;;;;;;5038194;28;20027;-81
2021/11/04 08:07:32;;;;;;;16.97;10.43;;;6.60;69.80;;;;;;5071745;28;20028;-81
2021/11/04 08:09:58;;;;;;;13.43;9.50;;;6.70;70.00;;;;;;5075382;28;20037;-81
2021/11/04 08:12:24;;;;;;;17.97;11.07;;;6.70;69.90;;;;;;5075378;28;20020;-81
2021/11/04 08:14:50;;;;;;;9.03;6.17;;;6.70;69.80;;;;;;5062337;28;20368;-81
2021/11/04 08:17:15;;;;;;;11.13;8.13;;;6.70;69.80;;;;;;5075039;28;20032;-82
2021/11/04 08:19:41;;;;;;;11.60;7.27;;;6.80;69.50;;;;;;5092034;28;20040;-81
2021/11/04 08:22:07;;;;;;;11.73;6.77;;;6.80;69.40;;;;;;5060750;28;20052;-81
2021/11/04 08:24:33;;;;;;;11.40;6.33;;;6.80;69.40;;;;;;5075235;28;20392;-81
2021/11/04 08:26:59;;;;;;;7.87;4.70;;;6.80;69.40;;;;;;5073316;28;20034;-82
2021/11/04 08:29:25;;;;;;;7.33;4.37;;;6.80;69.20;;;;;;5065372;28;20115;-82
2021/11/04 08:31:51;;;;;;;5.60;3.80;;;6.70;69.30;;;;;;5055895;28;20025;-82
2021/11/04 08:34:16;;;;;;;8.73;4.20;;;6.60;69.20;;;;;;5054700;28;20028;-82
2021/11/04 08:36:43;;;;;;;5.73;3.50;;;6.70;69.60;;;;;;5054616;28;20078;-81
2021/11/04 08:39:09;;;;;;;5.67;4.10;;;6.70;69.50;;;;;;5054045;28;20054;-82
2021/11/04 08:41:35;;;;;;;11.00;7.03;;;6.70;69.40;;;;;;5072197;28;20039;-82
2021/11/04 08:44:01;;;;;;;13.67;7.33;;;6.70;69.40;;;;;;5058578;28;20052;-82
2021/11/04 08:46:28;;;;;;;13.03;7.27;;;6.60;69.00;;;;;;5086745;28;20043;-81
2021/11/04 08:48:54;;;;;;;11.17;6.80;;;6.60;69.50;;;;;;5075788;28;20024;-81
2021/11/04 08:51:20;;;;;;;11.60;7.53;;;6.60;69.30;;;;;;5074931;28;20437;-81
2021/11/04 08:53:45;;;;;;;14.50;7.37;;;6.60;69.30;;;;;;5079625;28;20028;-81
2021/11/04 08:56:11;;;;;;;10.70;6.23;;;6.60;69.90;;;;;;5092739;28;20047;-82
2021/11/04 08:58:37;;;;;;;8.67;6.00;;;6.70;69.20;;;;;;5074017;28;20064;-82
2021/11/04 09:01:04;;;;;;;7.67;5.40;;;6.70;69.20;;;;;;5075594;28;20040;-81
2021/11/04 09:03:30;;;;;;;8.43;5.33;;;6.80;69.30;;;;;;5075243;28;20467;-81
2021/11/04 09:05:56;;;;;;;9.20;5.87;;;6.80;69.20;;;;;;5067559;28;20039;-81
2021/11/04 09:08:23;;;;;;;6.97;5.63;;;6.80;69.20;;;;;;5072009;28;20043;-81
2021/11/04 09:10:49;;;;;;;10.27;6.37;;;6.80;69.30;;;;;;5054155;28;20028;-81
2021/11/04 09:13:15;;;;;;;20.53;10.03;;;6.90;69.90;;;;;;5054577;28;20031;-81
2021/11/04 09:15:41;;;;;;;20.20;10.53;;;7.00;69.20;;;;;;5092336;28;20039;-81
2021/11/04 09:18:07;;;;;;;13.50;8.60;;;7.10;69.00;;;;;;5094801;28;20035;-81
2021/11/04 09:20:34;;;;;;;14.37;9.00;;;7.10;69.00;;;;;;5094671;28;20024;-81
2021/11/04 09:23:00;;;;;;;27.63;11.77;;;7.20;68.80;;;;;;5112930;28;20024;-81
2021/11/04 09:25:25;;;;;;;36.93;13.33;;;7.20;68.90;;;;;;5079796;28;20040;-81
2021/11/04 09:27:53;;;;;;;13.53;7.67;;;7.20;69.40;;;;;;5078322;28;20031;-81
2021/11/04 09:30:18;;;;;;;15.43;7.70;;;7.20;68.80;;;;;;5080474;28;20032;-80
2021/11/04 09:32:46;;;;;;;10.70;6.87;;;7.20;68.80;;;;;;5081530;28;20028;-81
2021/11/04 09:35:13;;;;;;;7.43;6.53;;;7.30;68.90;;;;;;5089983;28;20505;-81
2021/11/04 09:37:39;;;;;;;7.83;6.40;;;7.40;68.80;;;;;;5087385;28;20107;-80
2021/11/04 09:40:07;;;;;;;7.73;6.27;;;7.50;68.90;;;;;;5091527;28;20230;-81
2021/11/04 09:42:34;;;;;;;6.43;5.47;;;7.70;68.80;;;;;;5076883;28;20085;-81
2021/11/04 09:45:00;;;;;;;7.13;5.60;;;7.90;68.20;;;;;;5077080;28;20036;-82
2021/11/04 09:47:28;;;;;;;5.87;4.90;;;7.90;68.00;;;;;;5088740;28;20043;-81
2021/11/04 09:49:54;;;;;;;8.40;6.07;;;7.90;67.90;;;;;;5054168;28;20029;-81
2021/11/04 09:52:25;;;;;;;10.53;7.47;;;7.90;67.80;;;;;;5092699;28;20028;-81
2021/11/04 09:54:54;;;;;;;6.93;5.90;;;7.90;67.90;;;;;;5095681;28;20130;-81
2021/11/04 09:57:20;;;;;;;14.50;7.43;;;7.90;67.80;;;;;;5074580;28;20028;-81
2021/11/04 09:59:46;;;;;;;11.67;6.57;;;7.90;67.80;;;;;;5077165;28;20028;-81
2021/11/04 10:02:20;;;;;;;11.60;7.60;;;7.90;67.90;;;;;;5070510;28;20036;-81
2021/11/04 10:04:47;;;;;;;13.73;8.43;;;7.90;67.80;;;;;;5062862;28;20043;-81
2021/11/04 10:07:14;;;;;;;8.40;6.83;;;7.90;68.00;;;;;;5075278;28;20029;-81
2021/11/04 10:09:41;;;;;;;9.60;5.90;;;7.90;67.90;;;;;;5053593;28;20392;-81
2021/11/04 10:12:14;;;;;;;7.67;5.80;;;8.00;68.10;;;;;;5049288;28;20460;-81
2021/11/04 10:14:41;;;;;;;12.13;6.85;;;8.00;68.20;;;;;;5049283;28;20029;-81
2021/11/04 10:17:27;;;;;;;9.03;6.97;;;8.10;68.10;;;;;;5037233;28;20032;-81
2021/11/04 10:19:53;;;;;;;11.50;7.20;;;8.00;68.10;;;;;;5037281;28;20051;-82
2021/11/04 10:22:26;;;;;;;10.87;7.37;;;8.10;68.20;;;;;;5046220;28;20104;-82
2021/11/04 10:24:54;;;;;;;11.27;7.40;;;8.10;68.10;;;;;;5075145;28;20021;-81
2021/11/04 10:27:34;;;;;;;9.73;6.93;;;8.10;68.20;;;;;;5057126;28;20048;-81
2021/11/04 10:30:02;;;;;;;9.87;6.77;;;8.20;68.20;;;;;;5059278;28;20035;-82
2021/11/04 10:32:35;;;;;;;7.57;6.00;;;8.20;68.00;;;;;;5092883;28;20459;-82
2021/11/04 10:35:10;;;;;;;7.90;6.50;;;8.20;68.00;;;;;;5053569;28;20114;-81
2021/11/04 10:37:50;;;;;;;7.43;6.03;;;8.30;67.90;;;;;;5065232;28;20032;-82
2021/11/04 10:40:19;;;;;;;7.10;5.77;;;8.30;67.90;;;;;;5058893;28;20104;-81
2021/11/04 10:42:55;;;;;;;9.80;5.77;;;8.30;67.80;;;;;;5071848;28;20669;-81
2021/11/04 10:45:23;;;;;;;7.57;5.77;;;8.20;68.10;;;;;;5076630;28;20047;-81
2021/11/04 10:48:21;;;;;;;6.73;5.63;;;8.20;68.20;;;;;;5095960;28;20030;-82
2021/11/04 10:50:47;;;;;;;8.27;6.07;;;8.10;68.30;;;;;;5080929;28;20420;-81
2021/11/04 10:53:22;;;;;;;7.23;5.53;;;8.10;68.20;;;;;;5074623;28;20122;-81
2021/11/04 10:55:56;;;;;;;7.77;5.60;;;8.00;68.20;;;;;;5086532;28;20024;-81
2021/11/04 10:58:33;;;;;;;7.60;5.40;;;8.00;68.40;;;;;;5109070;28;20481;-81
2021/11/04 11:00:59;;;;;;;9.23;6.30;;;8.10;68.20;;;;;;5105804;28;20028;-81
2021/11/04 11:03:29;;;;;;;7.53;5.93;;;8.00;68.20;;;;;;5088815;28;20026;-81
2021/11/04 11:06:06;;;;;;;6.83;6.13;;;8.10;68.40;;;;;;5069114;28;20824;-81
2021/11/04 11:08:32;;;;;;;11.20;6.00;;;8.10;68.20;;;;;;5088998;28;20031;-81
2021/11/04 11:10:58;;;;;;;8.53;6.33;;;8.20;68.30;;;;;;5070205;28;20110;-81
2021/11/04 11:13:24;;;;;;;13.13;6.80;;;8.20;68.20;;;;;;5100827;28;20099;-81
2021/11/04 11:15:55;;;;;;;9.93;7.27;;;8.10;68.20;;;;;;5112151;28;20020;-81
2021/11/04 11:18:24;;;;;;;10.03;7.37;;;8.20;68.30;;;;;;5090844;28;20017;-81
2021/11/04 11:20:50;;;;;;;11.63;7.27;;;8.20;68.30;;;;;;5039400;28;20032;-82
2021/11/04 11:23:23;;;;;;;8.37;6.97;;;8.20;68.30;;;;;;5073644;28;20056;-81
2021/11/04 11:26:00;;;;;;;12.93;10.07;;;8.10;68.40;;;;;;5096287;28;20534;-81
2021/11/04 11:28:35;;;;;;;15.10;11.90;;;8.20;68.40;;;;;;5090139;28;20379;-81
2021/11/04 11:31:09;;;;;;;16.53;13.37;;;8.20;68.40;;;;;;5093884;28;20016;-81
2021/11/04 11:33:40;;;;;;;20.80;16.43;;;8.10;68.50;;;;;;5093852;28;20016;-81
2021/11/04 11:36:20;;;;;;;21.17;16.00;;;8.20;68.50;;;;;;5075695;28;20024;-81
2021/11/04 11:39:06;;;;;;;16.63;13.23;;;8.20;68.30;;;;;;5063336;28;20034;-81
2021/11/04 11:41:55;;;;;;;22.87;15.80;;;8.30;68.40;;;;;;5073585;28;20075;-81
2021/11/04 11:44:37;;;;;;;22.87;17.87;;;8.30;68.70;;;;;;5084399;28;20044;-81
2021/11/04 11:47:05;;;;;;;22.70;17.03;;;8.20;68.70;;;;;;5074549;28;20127;-81
2021/11/04 11:49:32;;;;;;;23.80;18.53;;;8.30;68.80;;;;;;5095024;28;20819;-81
2021/11/04 11:51:58;;;;;;;17.90;13.90;;;8.20;68.70;;;;;;5074821;28;20028;-81
2021/11/04 11:54:58;;;;;;;21.10;14.67;;;8.30;68.80;;;;;;5076296;28;20098;-81
2021/11/04 11:57:24;;;;;;;20.07;14.60;;;8.40;68.60;;;;;;5084214;28;20017;-81
2021/11/04 11:59:55;;;;;;;19.60;14.27;;;8.40;68.30;;;;;;5113199;28;20501;-81
2021/11/04 12:02:41;;;;;;;17.27;13.70;;;8.40;68.60;;;;;;5088266;28;20466;-81
2021/11/04 12:05:22;;;;;;;17.30;14.40;;;8.40;68.70;;;;;;5074404;28;20032;-82
2021/11/04 12:07:49;;;;;;;18.57;14.83;;;8.40;68.60;;;;;;5070900;28;20028;-81
2021/11/04 12:10:30;;;;;;;18.90;13.77;;;8.50;68.60;;;;;;5073122;28;20025;-81
2021/11/04 12:12:57;;;;;;;21.73;15.70;;;8.50;68.70;;;;;;5069774;28;20034;-81
2021/11/04 12:15:22;;;;;;;22.87;17.20;;;8.60;68.60;;;;;;5113476;28;20528;-81
2021/11/04 12:18:17;;;;;;;18.43;16.43;;;8.60;68.50;;;;;;5113505;28;20032;-81
2021/11/04 12:20:54;;;;;;;22.33;17.37;;;8.50;68.60;;;;;;5087277;28;20043;-82
2021/11/04 12:23:29;;;;;;;24.67;17.23;;;8.50;68.80;;;;;;5075155;28;20027;-82
2021/11/04 12:25:54;;;;;;;19.60;15.57;;;8.50;68.60;;;;;;5073977;28;20024;-82
2021/11/04 12:28:20;;;;;;;18.90;15.93;;;8.50;68.80;;;;;;5077613;28;20118;-82
2021/11/04 12:30:47;;;;;;;18.13;14.70;;;8.50;68.90;;;;;;5093479;28;20035;-82
2021/11/04 12:33:14;;;;;;;19.83;15.23;;;8.40;69.00;;;;;;5079200;28;20107;-82
2021/11/04 12:35:43;;;;;;;13.17;10.13;;;8.40;69.10;;;;;;5076409;28;20024;-82
2021/11/04 12:38:09;;;;;;;12.53;9.43;;;8.30;69.00;;;;;;5092161;28;20051;-82
2021/11/04 12:40:35;;;;;;;11.93;10.17;;;8.30;69.50;;;;;;5097322;28;20526;-82
2021/11/04 12:43:08;;;;;;;13.70;11.47;;;8.30;69.50;;;;;;5070260;28;20488;-82
2021/11/04 12:45:35;;;;;;;12.07;10.07;;;8.20;70.20;;;;;;5093039;28;20048;-82
2021/11/04 12:48:02;;;;;;;14.70;12.13;;;8.20;69.50;;;;;;5075691;28;20036;-81
2021/11/04 12:50:30;;;;;;;17.97;13.07;;;8.10;69.60;;;;;;5075164;28;20423;-82
2021/11/04 12:53:14;;;;;;;17.67;14.53;;;8.10;69.60;;;;;;5063670;28;20139;-82
2021/11/04 12:55:40;;;;;;;20.77;15.40;;;8.10;69.50;;;;;;5100417;28;20028;-82
2021/11/04 12:58:08;;;;;;;21.47;16.70;;;8.10;69.50;;;;;;5073430;28;20441;-83
2021/11/04 13:00:38;;;;;;;24.63;19.13;;;8.20;69.70;;;;;;5074346;28;20028;-82